| time (UTC) | temp F | wind direction | speed knots | gust knots | rain 1hr in | rain 24hr in | rain mn in | humidity % | barometer mb |
| 20260906104616 | 68 | 69 | 0.0 | 0.0 | 0.00 | 0.24 | 0.00 | 95 | 1011.2 |
| 20260906103051 | 68 | 69 | 0.0 | 0.0 | 0.00 | 0.24 | 0.00 | 95 | 1010.9 |
| 20260906101551 | 68 | 69 | 0.0 | 0.0 | 0.00 | 0.24 | 0.00 | 95 | 1010.6 |
| 20260906100051 | 68 | 69 | 0.0 | 0.0 | 0.00 | 0.24 | 0.00 | 95 | 1010.4 |
| 20260906094549 | 68 | 69 | 0.0 | 0.0 | 0.00 | 0.24 | 0.00 | 95 | 1010.3 |
| 20260906093058 | 68 | 69 | 0.0 | 0.0 | 0.00 | 0.24 | 0.00 | 94 | 1010.1 |
| 20260906091548 | 68 | 69 | 0.0 | 0.0 | 0.00 | 0.24 | 0.00 | 95 | 1010.0 |
| 20260906090049 | 69 | 69 | 0.0 | 0.0 | 0.00 | 0.24 | 0.00 | 95 | 1009.8 |
| 20260906084546 | 69 | 69 | 0.0 | 0.0 | 0.00 | 0.24 | 0.00 | 94 | 1009.9 |
| 20260906083045 | 69 | 69 | 0.0 | 0.0 | 0.00 | 0.24 | 0.00 | 95 | 1009.7 |
| 20260906081544 | 69 | 69 | 0.0 | 0.0 | 0.00 | 0.24 | 0.00 | 95 | 1009.5 |
| 20260906080043 | 69 | 69 | 0.0 | 0.0 | 0.00 | 0.24 | 0.00 | 94 | 1009.4 |
| 20260906074541 | 69 | 69 | 0.0 | 0.0 | 0.00 | 0.24 | 0.00 | 94 | 1009.4 |
| 20260906073040 | 70 | 69 | 0.0 | 0.0 | 0.00 | 0.24 | 0.00 | 94 | 1009.5 |
| 20260906071538 | 70 | 69 | 0.0 | 0.0 | 0.00 | 0.24 | 0.00 | 94 | 1009.6 |
| 20260906070039 | 70 | 69 | 0.0 | 0.0 | 0.00 | 0.24 | 0.00 | 94 | 1009.6 |
| 20260906064535 | 70 | 69 | 0.0 | 0.0 | 0.00 | 0.24 | 0.00 | 94 | 1009.8 |
| 20260906063034 | 70 | 69 | 0.0 | 0.0 | 0.00 | 0.24 | 0.00 | 94 | 1009.9 |
| 20260906061534 | 70 | 69 | 0.0 | 0.0 | 0.00 | 0.24 | 0.00 | 94 | 1010.1 |
| 20260906060033 | 70 | 69 | 0.0 | 0.0 | 0.00 | 0.24 | 0.00 | 94 | 1010.2 |
| 20260906054528 | 70 | 69 | 0.0 | 0.0 | 0.00 | 0.24 | 0.00 | 94 | 1010.3 |
| 20260906053028 | 70 | 69 | 0.0 | 0.0 | 0.00 | 0.24 | 0.00 | 94 | 1010.3 |
| 20260906051532 | 71 | 69 | 0.0 | 0.0 | 0.00 | 0.24 | 0.00 | 94 | 1010.3 |
| 20260906050027 | 71 | 69 | 0.0 | 0.9 | 0.00 | 0.24 | 0.00 | 93 | 1010.7 |
| 20260906044523 | 70 | 339 | 0.0 | 0.9 | 0.00 | 0.24 | 0.00 | 93 | 1010.8 |
| 20260906043022 | 71 | 339 | 0.0 | 0.0 | 0.00 | 0.24 | 0.00 | 93 | 1010.8 |
| 20260906041524 | 71 | 339 | 0.0 | 0.0 | 0.00 | 0.24 | 0.00 | 93 | 1010.8 |
| 20260906040019 | 71 | 339 | 0.0 | 0.0 | 0.00 | 0.24 | 0.00 | 93 | 1010.8 |
| 20260906034517 | 71 | 339 | 0.0 | 0.0 | 0.00 | 0.24 | 0.24 | 93 | 1010.9 |
| 20260906033016 | 71 | 339 | 0.0 | 0.0 | 0.00 | 0.24 | 0.24 | 93 | 1011.0 |
| 20260906031515 | 72 | 339 | 0.0 | 0.0 | 0.00 | 0.24 | 0.24 | 93 | 1010.9 |
| 20260906030014 | 72 | 339 | 0.0 | 0.0 | 0.00 | 0.24 | 0.24 | 93 | 1010.7 |
| 20260906024513 | 72 | 339 | 0.0 | 0.0 | 0.00 | 0.24 | 0.24 | 93 | 1010.6 |
| 20260906023019 | 72 | 339 | 0.0 | 0.0 | 0.00 | 0.24 | 0.24 | 93 | 1010.6 |
| 20260906021515 | 72 | 339 | 0.0 | 0.0 | 0.00 | 0.24 | 0.24 | 93 | 1010.5 |
| 20260906020012 | 72 | 339 | 0.0 | 0.0 | 0.00 | 0.24 | 0.24 | 92 | 1010.6 |
| 20260906014518 | 73 | 339 | 0.0 | 0.0 | 0.00 | 0.24 | 0.24 | 92 | 1010.4 |
| 20260906013010 | 73 | 339 | 0.0 | 0.0 | 0.00 | 0.24 | 0.24 | 92 | 1010.4 |
| 20260906011509 | 73 | 339 | 0.0 | 0.0 | 0.00 | 0.24 | 0.24 | 91 | 1010.3 |
| 20260906010008 | 74 | 339 | 0.0 | 0.0 | 0.00 | 0.24 | 0.24 | 91 | 1010.0 |
| 20260906004509 | 74 | 339 | 0.0 | 0.0 | 0.00 | 0.24 | 0.24 | 90 | 1010.0 |
| 20260906001506 | 75 | 339 | 0.0 | 0.0 | 0.00 | 0.24 | 0.24 | 89 | 1009.9 |
| 20260906000006 | 76 | 339 | 0.0 | 0.0 | 0.00 | 0.24 | 0.24 | 90 | 1009.8 |
| 20260905234504 | 77 | 339 | 0.0 | 0.0 | 0.00 | 0.24 | 0.24 | 90 | 1009.5 |
| 20260905233012 | 77 | 339 | 0.0 | 0.9 | 0.00 | 0.24 | 0.24 | 90 | 1009.3 |
| 20260905231504 | 77 | 339 | 0.0 | 0.9 | 0.00 | 0.24 | 0.24 | 90 | 1008.9 |
| 20260905230003 | 77 | 339 | 0.0 | 4.3 | 0.00 | 0.24 | 0.24 | 90 | 1009.0 |
| 20260905224503 | 77 | 5 | 0.0 | 1.7 | 0.00 | 0.24 | 0.24 | 91 | 1009.0 |
| 20260905223004 | 77 | 5 | 0.0 | 2.6 | 0.00 | 0.24 | 0.24 | 90 | 1008.9 |
| 20260905221501 | 77 | 35 | 0.0 | 0.9 | 0.00 | 0.24 | 0.24 | 90 | 1009.1 |
| 20260905220002 | 76 | 35 | 0.0 | 0.9 | 0.00 | 0.24 | 0.24 | 91 | 1009.3 |
| 20260905214600 | 76 | 36 | 0.0 | 0.9 | 0.00 | 0.24 | 0.24 | 92 | 1009.6 |
| 20260905213058 | 76 | 36 | 0.0 | 0.0 | 0.00 | 0.24 | 0.24 | 92 | 1009.4 |
| 20260905211602 | 76 | 36 | 0.0 | 2.6 | 0.00 | 0.24 | 0.24 | 92 | 1009.7 |
| 20260905210058 | 76 | 360 | 0.0 | 3.5 | 0.03 | 0.24 | 0.24 | 92 | 1009.9 |
| 20260905204556 | 75 | 344 | 0.0 | 0.9 | 0.06 | 0.24 | 0.24 | 92 | 1010.0 |
| 20260905203100 | 74 | 344 | 0.0 | 3.5 | 0.11 | 0.24 | 0.24 | 92 | 1009.7 |
| 20260905201555 | 74 | 348 | 0.0 | 3.5 | 0.18 | 0.24 | 0.24 | 90 | 1009.3 |
| 20260905200103 | 74 | 32 | 0.0 | 4.3 | 0.21 | 0.21 | 0.21 | 88 | 1009.0 |
| 20260905194552 | 75 | 89 | 0.0 | 0.9 | 0.18 | 0.18 | 0.18 | 86 | 1009.4 |
| 20260905193107 | 76 | 74 | 0.0 | 6.1 | 0.13 | 0.13 | 0.13 | 84 | 1010.3 |
| 20260905191551 | 77 | 304 | 0.9 | 7.8 | 0.06 | 0.06 | 0.06 | 81 | 1011.0 |
| 20260905190051 | 88 | 305 | 6.1 | 16.5 | 0.00 | 0.00 | 0.00 | 59 | 1012.1 |
| 20260905184549 | 96 | 303 | 1.7 | 6.1 | 0.00 | 0.00 | 0.00 | 52 | 1009.1 |
| 20260905183054 | 98 | 271 | 0.0 | 5.2 | 0.00 | 0.00 | 0.00 | 53 | 1008.7 |
| 20260905181547 | 99 | 286 | 1.7 | 7.0 | 0.00 | 0.00 | 0.00 | 53 | 1009.1 |
| 20260905180044 | 98 | 298 | 0.9 | 5.2 | 0.00 | 0.00 | 0.00 | 54 | 1009.5 |
| 20260905174540 | 98 | 333 | 0.9 | 6.1 | 0.00 | 0.00 | 0.00 | 56 | 1009.8 |
| 20260905173037 | 97 | 298 | 4.3 | 8.7 | 0.00 | 0.00 | 0.00 | 54 | 1010.3 |
| 20260905171537 | 97 | 309 | 2.6 | 7.0 | 0.00 | 0.00 | 0.00 | 56 | 1010.4 |
| 20260905170037 | 97 | 308 | 3.5 | 7.0 | 0.00 | 0.00 | 0.00 | 55 | 1010.5 |
| 20260905164532 | 97 | 38 | 2.6 | 5.2 | 0.00 | 0.00 | 0.00 | 56 | 1010.9 |
| 20260905163028 | 96 | 29 | 0.9 | 4.3 | 0.00 | 0.00 | 0.00 | 58 | 1011.0 |
| 20260905161526 | 96 | 304 | 3.5 | 7.8 | 0.00 | 0.00 | 0.00 | 59 | 1011.2 |
| 20260905160028 | 95 | 287 | 0.0 | 6.1 | 0.00 | 0.00 | 0.00 | 64 | 1011.3 |
| 20260905154519 | 95 | 333 | 0.9 | 2.6 | 0.00 | 0.00 | 0.00 | 60 | 1011.4 |
| 20260905153014 | 93 | 242 | 0.9 | 3.5 | 0.00 | 0.00 | 0.00 | 66 | 1011.5 |
| 20260905151511 | 93 | 221 | 0.0 | 2.6 | 0.00 | 0.00 | 0.00 | 66 | 1011.7 |
| 20260905150007 | 92 | 320 | 1.7 | 5.2 | 0.00 | 0.00 | 0.00 | 67 | 1011.7 |
| 20260905144502 | 91 | 333 | 0.0 | 1.7 | 0.00 | 0.00 | 0.00 | 70 | 1011.7 |
| 20260905143059 | 89 | 334 | 0.0 | 3.5 | 0.00 | 0.00 | 0.00 | 72 | 1011.7 |
| 20260905141555 | 88 | 335 | 0.0 | 2.6 | 0.00 | 0.00 | 0.00 | 75 | 1011.7 |
| 20260905140051 | 86 | 335 | 0.0 | 4.3 | 0.00 | 0.00 | 0.00 | 77 | 1011.8 |
| 20260905134548 | 84 | 342 | 0.9 | 2.6 | 0.00 | 0.00 | 0.00 | 82 | 1011.9 |
| 20260905133041 | 80 | 319 | 0.0 | 1.7 | 0.00 | 0.00 | 0.00 | 90 | 1012.0 |
| 20260905131538 | 77 | 324 | 0.0 | 1.7 | 0.00 | 0.00 | 0.00 | 95 | 1012.1 |
| 20260905130035 | 76 | 324 | 0.0 | 1.7 | 0.00 | 0.00 | 0.00 | 95 | 1012.2 |
| 20260905124529 | 75 | 324 | 0.0 | 0.9 | 0.00 | 0.00 | 0.00 | 95 | 1012.3 |
| 20260905123028 | 74 | 324 | 0.0 | 0.9 | 0.00 | 0.00 | 0.00 | 94 | 1012.2 |
| 20260905121528 | 73 | 324 | 0.0 | 0.0 | 0.00 | 0.00 | 0.00 | 94 | 1012.3 |
| 20260905120027 | 72 | 324 | 0.0 | 0.0 | 0.00 | 0.00 | 0.00 | 93 | 1012.3 |
| 20260905114525 | 72 | 324 | 0.0 | 0.0 | 0.00 | 0.00 | 0.00 | 93 | 1012.2 |
| 20260905113023 | 72 | 324 | 0.0 | 0.0 | 0.00 | 0.00 | 0.00 | 93 | 1011.8 |
| 20260905111521 | 72 | 324 | 0.0 | 0.0 | 0.00 | 0.00 | 0.00 | 93 | 1011.5 |